Airfield :







YOU CAN JOIN US ON...

 
LOGIN :

Register | Disclaimer

   EN    FR    IT 

 









Legend :    VFR   Marginal VFR   IFR   Intensive IFR   Very Intensive IFR
Visi :
Ceiling :
>= 8 km
>= 3000ft
5 to 8 km
1000 to 3000 ft
1500m to 5 km
500 to 1000 ft
800 to 1500m
200 to 500 ft
< 800m
< 200 ft
Symbols :   Thunderstorms  Fog  Heavy snow  Heavy precipitations  Wind > 20 kt






- Airport Elevation : 112 ft
- IATA code : UAK


BGBW - Narsarsuak

CURRENT METAR :
  • 070950Z 00000KT 9999 FEW001 M01/M03 Q1002

EXPIRED METARs :
  • 070850Z AUTO 21002KT 9999NDV FEW085/// BKN100/// M01/M02 Q1003
  • 070750Z AUTO 01003KT 9999NDV FEW055/// BKN085/// BKN110/// 00/M03 Q1003

TAF AMD TAF BGBW
Valid from the 07 at 09:00 until the 07 at 18:00 UTC


071002Z 0709/0718 05010KT 9999 FEW001
TEMPO 0709/0714 SCT008 BKN025
TEMPO 0714/0718 VRB05KT 3000 -SHSN SCT008 BKN012
BGGL FIR / North America



MET'MAP, your aeronautical weather chart ! - Copyright ORBIFLY December 2007 - Disclaimer

ORBIFLY MET'MAP TEAM :

Programming & Development : Alexandra Zaïnal
Original concept : Baudouin d'Aumeries
Technical & hardware support : Manuel Goepfert
Assistance : Marc-Olivier Méhu




SOURCES & CREDITS :

   NOAA